Terminal Aerodrome Forecast
Issued by NWS

Home | Current Version | Previous Version | Text Only | Print | Product List | Glossary On
Versions: 1 2 3 4 5 6 7 8 9 10 11 12 13 14 15 16 17
000
FTUS41 KCAR 050539
TAFPQI
TAF
KPQI 050539Z 0506/0606 20004KT P6SM FEW250
      TEMPO 0509/0511 2SM BR SCT002
     FM051200 24006KT P6SM SCT090
     FM051600 24007KT 6SM -SHRA BKN040
     FM052100 25006KT P6SM BKN060
      AMD LTD TO CLD VIS AND WIND=

USA.gov is the U.S. government's official web portal to all federal, state and local government web resources and services.